createdAt,value
2018-06-09T00:00:05.896Z,31.20
2018-06-09T00:02:33.836Z,24.90
2018-06-09T00:05:01.585Z,27.20
2018-06-09T00:07:29.466Z,34.50
2018-06-09T00:09:57.835Z,28.60
2018-06-09T00:12:25.759Z,28.23
2018-06-09T00:14:53.646Z,29.90
2018-06-09T00:17:21.563Z,34.20
2018-06-09T00:19:49.293Z,34.43
2018-06-09T00:22:17.213Z,30.33
2018-06-09T00:24:45.851Z,27.77
2018-06-09T00:27:13.695Z,37.67
2018-06-09T00:29:41.564Z,35.27
2018-06-09T00:32:09.874Z,34.50
2018-06-09T00:34:37.614Z,32.87
2018-06-09T00:37:05.588Z,31.10
2018-06-09T00:39:33.899Z,32.27
2018-06-09T00:42:01.778Z,33.43
2018-06-09T00:44:29.525Z,36.10
2018-06-09T00:46:57.381Z,32.27
2018-06-09T00:49:25.165Z,31.93
2018-06-09T00:51:53.007Z,38.43
2018-06-09T00:54:20.895Z,38.07
2018-06-09T00:56:48.669Z,39.10
2018-06-09T00:59:16.640Z,45.80
2018-06-09T01:01:44.705Z,35.43
2018-06-09T01:04:13.178Z,39.40
2018-06-09T01:06:41.056Z,39.20
2018-06-09T01:09:09.033Z,35.73
2018-06-09T01:11:36.934Z,37.30
2018-06-09T01:14:05.437Z,36.20
2018-06-09T01:16:33.291Z,35.30
2018-06-09T01:19:01.612Z,38.37
2018-06-09T01:21:29.484Z,46.90
2018-06-09T01:26:36.705Z,36.37
2018-06-09T01:29:04.619Z,38.33
2018-06-09T01:31:32.569Z,36.67
2018-06-09T01:34:00.949Z,35.63
2018-06-09T01:36:28.879Z,35.43
2018-06-09T01:38:56.872Z,31.67
2018-06-09T01:41:24.868Z,42.33
2018-06-09T01:43:52.783Z,36.93
2018-06-09T01:46:20.519Z,34.03
2018-06-09T01:48:48.560Z,30.63
2018-06-09T01:51:16.426Z,32.33
2018-06-09T01:53:44.699Z,34.03
2018-06-09T01:56:12.574Z,33.00
2018-06-09T01:58:40.479Z,35.87
2018-06-09T02:01:08.371Z,33.60
2018-06-09T02:03:36.270Z,35.57
2018-06-09T02:06:04.191Z,35.20
2018-06-09T02:08:31.939Z,30.80
2018-06-09T02:11:00.404Z,28.50
2018-06-09T02:13:28.274Z,25.93
2018-06-09T02:15:56.797Z,29.87
2018-06-09T02:18:24.697Z,29.13
2018-06-09T02:20:52.542Z,26.27
2018-06-09T02:23:20.460Z,32.97
2018-06-09T02:25:48.310Z,34.40
2018-06-09T02:28:16.235Z,35.77
2018-06-09T02:30:44.143Z,34.60
2018-06-09T02:33:12.003Z,34.23
2018-06-09T02:35:39.863Z,34.90
2018-06-09T02:38:07.768Z,35.20
2018-06-09T02:40:35.677Z,36.60
2018-06-09T02:43:03.589Z,40.03
2018-06-09T02:45:31.675Z,40.23
2018-06-09T02:47:59.580Z,40.17
2018-06-09T02:50:27.459Z,37.07
2018-06-09T02:52:56.094Z,37.20
2018-06-09T02:55:23.951Z,44.37
2018-06-09T02:57:52.401Z,39.07
2018-06-09T03:00:20.424Z,36.60
2018-06-09T03:02:48.289Z,35.17
2018-06-09T03:05:16.148Z,40.43
2018-06-09T03:07:44.727Z,38.00
2018-06-09T03:10:12.563Z,40.07
2018-06-09T03:12:40.433Z,44.23
2018-06-09T03:15:08.294Z,43.47
2018-06-09T03:17:36.161Z,41.50
2018-06-09T03:20:03.934Z,40.67
2018-06-09T03:22:32.429Z,37.40
2018-06-09T03:25:00.320Z,38.93
2018-06-09T03:27:28.577Z,47.63
2018-06-09T03:29:56.416Z,50.23
2018-06-09T03:32:24.754Z,42.60
2018-06-09T03:34:52.626Z,41.67
2018-06-09T03:37:20.456Z,43.03
2018-06-09T03:39:48.304Z,49.30
2018-06-09T03:42:16.132Z,45.43
2018-06-09T03:44:43.865Z,45.00
2018-06-09T03:47:12.003Z,45.30
2018-06-09T03:49:39.883Z,44.63
2018-06-09T03:52:07.762Z,45.60
2018-06-09T03:54:35.601Z,39.53
2018-06-09T03:57:03.517Z,41.70
2018-06-09T03:59:31.564Z,45.97
2018-06-09T04:01:59.449Z,45.70
2018-06-09T04:04:27.194Z,48.30
2018-06-09T04:06:55.078Z,46.47
2018-06-09T04:09:22.810Z,48.00
2018-06-09T04:11:50.797Z,46.00
2018-06-09T04:14:18.668Z,50.40
2018-06-09T04:16:48.875Z,47.43
2018-06-09T04:19:17.011Z,46.80
2018-06-09T04:21:45.073Z,47.10
2018-06-09T04:24:12.983Z,44.47
2018-06-09T04:26:40.856Z,44.80
2018-06-09T04:29:08.723Z,44.87
2018-06-09T04:31:36.627Z,43.77
2018-06-09T04:34:04.517Z,53.17
2018-06-09T04:36:32.398Z,50.47
2018-06-09T04:39:00.650Z,47.63
2018-06-09T04:41:28.559Z,40.43
2018-06-09T04:43:56.432Z,43.30
2018-06-09T04:46:24.279Z,52.40
2018-06-09T04:48:52.189Z,44.67
2018-06-09T04:51:20.093Z,50.80
2018-06-09T04:53:47.991Z,48.93
2018-06-09T04:56:15.856Z,45.03
2018-06-09T04:58:43.701Z,46.67
2018-06-09T05:01:11.647Z,49.37
2018-06-09T05:03:39.525Z,39.30
2018-06-09T05:06:07.275Z,48.90
2018-06-09T05:08:34.999Z,47.23
2018-06-09T05:11:02.887Z,43.40
2018-06-09T05:13:30.735Z,44.53
2018-06-09T05:15:59.261Z,43.30
2018-06-09T05:18:27.012Z,44.43
2018-06-09T05:20:54.746Z,42.50
2018-06-09T05:23:22.657Z,44.23
2018-06-09T05:25:50.518Z,41.20
2018-06-09T05:28:18.251Z,45.20
2018-06-09T05:30:46.125Z,38.30
2018-06-09T05:33:13.904Z,38.60
2018-06-09T05:35:41.633Z,38.73
2018-06-09T05:38:09.752Z,39.87
2018-06-09T05:40:37.465Z,44.07
2018-06-09T05:43:05.328Z,36.97
2018-06-09T05:45:33.173Z,38.73
2018-06-09T05:48:01.065Z,39.67
2018-06-09T05:50:28.943Z,39.80
2018-06-09T05:52:56.800Z,33.87
2018-06-09T05:55:24.632Z,34.37
2018-06-09T05:57:52.364Z,33.70
2018-06-09T06:00:20.314Z,35.93
2018-06-09T06:02:48.445Z,29.43
2018-06-09T06:05:16.342Z,31.00
2018-06-09T06:07:44.241Z,27.60
2018-06-09T06:10:11.998Z,26.80
2018-06-09T06:12:39.885Z,39.17
2018-06-09T06:15:07.815Z,23.93
2018-06-09T06:17:35.687Z,22.80
2018-06-09T06:20:03.633Z,22.00
2018-06-09T06:22:31.517Z,21.57
2018-06-09T06:25:00.363Z,18.30
2018-06-09T06:27:28.104Z,16.17
2018-06-09T06:29:55.970Z,14.47
2018-06-09T06:32:24.070Z,14.97
2018-06-09T06:34:51.970Z,13.10
2018-06-09T06:37:19.822Z,13.97
2018-06-09T06:39:47.689Z,10.43
2018-06-09T06:42:15.598Z,15.67
2018-06-09T06:44:43.447Z,13.87
2018-06-09T06:47:11.380Z,14.00
2018-06-09T06:49:39.291Z,16.13
2018-06-09T06:52:07.176Z,14.70
2018-06-09T06:54:35.054Z,12.23
2018-06-09T06:57:02.810Z,13.60
2018-06-09T06:59:30.670Z,12.93
2018-06-09T07:01:58.576Z,11.83
2018-06-09T07:04:26.609Z,13.20
2018-06-09T07:06:54.459Z,17.30
2018-06-09T07:09:22.304Z,15.57
2018-06-09T07:11:50.149Z,12.57
2018-06-09T07:14:19.544Z,27.60
2018-06-09T07:16:47.457Z,17.73
2018-06-09T07:19:15.282Z,10.27
2018-06-09T07:21:43.844Z,16.60
2018-06-09T07:24:12.020Z,9.47
2018-06-09T07:26:39.741Z,16.30
2018-06-09T07:29:07.608Z,15.10
2018-06-09T07:31:35.712Z,14.73
2018-06-09T07:34:03.473Z,17.40
2018-06-09T07:36:31.376Z,10.37
2018-06-09T07:38:59.870Z,13.13
2018-06-09T07:41:27.927Z,12.23
2018-06-09T07:43:55.840Z,12.43
2018-06-09T07:46:23.764Z,9.33
2018-06-09T07:48:51.482Z,11.80
2018-06-09T07:51:19.360Z,15.90
2018-06-09T07:53:47.776Z,10.60
2018-06-09T07:56:15.690Z,11.90
2018-06-09T07:58:48.483Z,13.70
2018-06-09T08:01:16.929Z,15.50
2018-06-09T08:03:44.781Z,10.03
2018-06-09T08:06:12.680Z,10.80
2018-06-09T08:08:40.610Z,22.23
2018-06-09T08:11:08.752Z,9.87
2018-06-09T08:13:38.044Z,18.03
2018-06-09T08:16:05.946Z,8.83
2018-06-09T08:18:33.672Z,8.17
2018-06-09T08:21:01.974Z,13.20
2018-06-09T08:23:29.897Z,17.53
2018-06-09T08:25:57.766Z,11.80
2018-06-09T08:28:25.679Z,15.40
2018-06-09T08:30:53.549Z,12.40
2018-06-09T08:33:21.257Z,13.10
2018-06-09T08:35:49.103Z,12.97
2018-06-09T08:38:16.963Z,10.40
2018-06-09T08:40:45.610Z,11.67
2018-06-09T08:43:14.064Z,11.13
2018-06-09T08:45:42.282Z,14.67
2018-06-09T08:48:10.258Z,15.73
2018-06-09T08:50:38.106Z,13.23
2018-06-09T08:53:05.966Z,11.60
2018-06-09T08:55:33.806Z,8.97
2018-06-09T08:58:02.246Z,12.70
2018-06-09T09:00:30.108Z,10.57
2018-06-09T09:02:57.829Z,11.50
2018-06-09T09:05:25.657Z,14.30
2018-06-09T09:07:53.563Z,8.63
2018-06-09T09:10:21.779Z,12.70
2018-06-09T09:12:49.669Z,13.20
2018-06-09T09:15:17.754Z,11.13
2018-06-09T09:17:46.313Z,14.67
2018-06-09T09:20:14.029Z,9.93
2018-06-09T09:22:41.885Z,16.77
2018-06-09T09:25:09.750Z,9.77
2018-06-09T09:27:37.590Z,9.37
2018-06-09T09:30:05.475Z,10.23
2018-06-09T09:32:33.516Z,9.60
2018-06-09T09:35:01.383Z,10.90
2018-06-09T09:37:29.119Z,13.57
2018-06-09T09:39:56.891Z,14.57
2018-06-09T09:42:24.791Z,9.90
2018-06-09T09:44:52.667Z,11.47
2018-06-09T09:47:20.512Z,13.40
2018-06-09T09:49:48.343Z,10.30
2018-06-09T09:52:16.212Z,11.73
2018-06-09T09:54:44.639Z,14.57
2018-06-09T09:57:12.530Z,13.43
2018-06-09T09:59:40.397Z,15.00
2018-06-09T10:02:09.014Z,13.93
2018-06-09T10:04:36.984Z,11.77
2018-06-09T10:07:05.123Z,11.60
2018-06-09T10:09:32.958Z,13.50
2018-06-09T10:12:00.689Z,9.93
2018-06-09T10:14:28.636Z,10.67
2018-06-09T10:16:56.466Z,9.97
2018-06-09T10:19:24.312Z,11.73
2018-06-09T10:21:52.124Z,15.67
2018-06-09T10:24:19.951Z,12.30
2018-06-09T10:26:47.828Z,9.17
2018-06-09T10:29:15.730Z,14.50
2018-06-09T10:31:43.804Z,12.13
2018-06-09T10:34:11.619Z,9.70
2018-06-09T10:36:39.353Z,9.03
2018-06-09T10:39:08.142Z,12.10
2018-06-09T10:41:36.837Z,20.77
2018-06-09T10:44:04.697Z,10.90
2018-06-09T10:46:32.578Z,11.60
2018-06-09T10:49:00.304Z,14.93
2018-06-09T10:51:28.184Z,13.27
2018-06-09T10:53:56.276Z,9.13
2018-06-09T10:56:24.105Z,11.87
2018-06-09T10:58:51.927Z,12.37
2018-06-09T11:01:19.642Z,13.30
2018-06-09T11:03:48.415Z,9.07
2018-06-09T11:06:16.508Z,12.63
2018-06-09T11:08:44.402Z,10.80
2018-06-09T11:11:12.149Z,7.70
2018-06-09T11:13:39.973Z,12.33
2018-06-09T11:16:07.808Z,8.60
2018-06-09T11:18:35.551Z,15.33
2018-06-09T11:21:03.438Z,11.37
2018-06-09T11:23:31.524Z,7.97
2018-06-09T11:25:59.532Z,13.17
2018-06-09T11:28:27.443Z,18.50
2018-06-09T11:30:55.333Z,12.60
2018-06-09T11:33:23.033Z,11.70
2018-06-09T11:35:51.465Z,13.13
2018-06-09T11:38:19.307Z,15.77
2018-06-09T11:40:47.164Z,13.70
2018-06-09T11:43:15.027Z,17.53
2018-06-09T11:45:42.890Z,10.07
2018-06-09T11:48:10.950Z,10.60
2018-06-09T11:50:39.851Z,12.27
2018-06-09T11:53:07.711Z,11.03
2018-06-09T11:55:35.579Z,6.47
2018-06-09T11:58:03.598Z,16.87
2018-06-09T12:00:31.665Z,12.23
2018-06-09T12:02:59.407Z,15.93
2018-06-09T12:05:27.298Z,17.80
2018-06-09T12:07:55.041Z,7.87
2018-06-09T12:10:22.939Z,10.67
2018-06-09T12:12:50.743Z,8.70
2018-06-09T12:15:18.838Z,21.80
2018-06-09T12:17:46.749Z,9.40
2018-06-09T12:20:14.655Z,12.53
2018-06-09T12:22:43.052Z,10.20
2018-06-09T12:25:10.913Z,11.50
2018-06-09T12:27:38.805Z,16.50
2018-06-09T12:30:06.645Z,11.37
2018-06-09T12:32:34.819Z,13.67
2018-06-09T12:35:02.727Z,11.60
2018-06-09T12:37:30.455Z,11.17
2018-06-09T12:39:58.302Z,15.93
2018-06-09T12:42:26.145Z,17.27
2018-06-09T12:44:54.015Z,13.40
2018-06-09T12:47:22.142Z,7.67
2018-06-09T12:49:50.019Z,18.23
2018-06-09T12:52:18.197Z,10.77
2018-06-09T12:54:46.091Z,11.77
2018-06-09T12:57:13.823Z,12.33
2018-06-09T12:59:41.704Z,10.73
2018-06-09T13:02:09.438Z,10.53
2018-06-09T13:04:37.334Z,13.77
2018-06-09T13:07:05.429Z,13.60
2018-06-09T13:09:33.325Z,11.47
2018-06-09T13:12:01.165Z,16.37
2018-06-09T13:14:28.884Z,11.30
2018-06-09T13:16:56.743Z,16.73
2018-06-09T13:19:24.635Z,10.67
2018-06-09T13:21:52.692Z,14.77
2018-06-09T13:24:20.890Z,15.37
2018-06-09T13:26:48.740Z,16.57
2018-06-09T13:29:16.566Z,9.13
2018-06-09T13:31:44.404Z,11.63
2018-06-09T13:34:12.266Z,12.70
2018-06-09T13:36:40.118Z,14.13
2018-06-09T13:39:08.655Z,14.23
2018-06-09T13:41:36.529Z,12.13
2018-06-09T13:44:04.452Z,11.20
2018-06-09T13:46:32.334Z,17.47
2018-06-09T13:49:00.104Z,9.70
2018-06-09T13:51:28.011Z,10.70
2018-06-09T13:53:55.900Z,13.10
2018-06-09T13:56:24.069Z,23.60
2018-06-09T13:58:51.843Z,11.80
2018-06-09T14:01:19.763Z,10.50
2018-06-09T14:03:47.593Z,17.43
2018-06-09T14:06:15.532Z,17.53
2018-06-09T14:08:43.658Z,13.53
2018-06-09T14:11:11.518Z,9.80
2018-06-09T14:13:39.954Z,12.30
2018-06-09T14:16:07.798Z,11.30
2018-06-09T14:18:35.914Z,10.23
2018-06-09T14:21:03.782Z,16.67
2018-06-09T14:23:31.637Z,14.00
2018-06-09T14:25:59.361Z,13.57
2018-06-09T14:28:27.448Z,11.57
2018-06-09T14:30:55.731Z,7.63
2018-06-09T14:33:23.804Z,13.83
2018-06-09T14:35:51.661Z,14.00
2018-06-09T14:38:19.549Z,15.33
2018-06-09T14:40:47.404Z,17.40
2018-06-09T14:43:15.346Z,16.13
2018-06-09T14:45:43.222Z,17.97
2018-06-09T14:48:12.064Z,13.73
2018-06-09T14:50:40.127Z,14.37
2018-06-09T14:53:08.429Z,10.63
2018-06-09T14:55:36.325Z,17.60
2018-06-09T14:58:04.218Z,12.13
2018-06-09T15:00:32.265Z,18.10
2018-06-09T15:03:00.110Z,14.30
2018-06-09T15:05:28.259Z,12.73
2018-06-09T15:07:56.141Z,19.00
2018-06-09T15:10:24.013Z,12.10
2018-06-09T15:12:51.886Z,21.23
2018-06-09T15:15:19.774Z,10.60
2018-06-09T15:17:47.982Z,14.50
2018-06-09T15:20:15.872Z,10.40
2018-06-09T15:22:43.735Z,10.10
2018-06-09T15:25:11.475Z,12.90
2018-06-09T15:27:39.389Z,6.97
2018-06-09T15:30:07.416Z,10.70
2018-06-09T15:32:36.125Z,11.40
2018-06-09T15:35:04.034Z,12.30
2018-06-09T15:37:31.932Z,12.63
2018-06-09T15:39:59.789Z,15.27
2018-06-09T15:42:27.970Z,14.73
2018-06-09T15:44:55.818Z,24.33
2018-06-09T15:47:23.641Z,14.70
2018-06-09T15:49:52.339Z,14.50
2018-06-09T15:52:20.430Z,8.03
2018-06-09T15:54:48.341Z,16.93
2018-06-09T15:57:16.219Z,10.60
2018-06-09T15:59:43.966Z,12.53
2018-06-09T16:02:12.348Z,12.43
2018-06-09T16:04:40.188Z,20.53
2018-06-09T16:07:08.340Z,10.77
2018-06-09T16:09:36.229Z,12.53
2018-06-09T16:12:04.478Z,7.73
2018-06-09T16:14:33.900Z,14.27
2018-06-09T16:17:01.922Z,15.23
2018-06-09T16:19:29.766Z,10.90
2018-06-09T16:21:57.948Z,25.43
2018-06-09T16:24:25.817Z,16.73
2018-06-09T16:26:53.693Z,8.23
2018-06-09T16:29:23.288Z,12.03
2018-06-09T16:31:52.208Z,10.17
2018-06-09T16:34:20.287Z,12.63
2018-06-09T16:36:48.179Z,10.67
2018-06-09T16:39:16.006Z,14.13
2018-06-09T16:41:43.726Z,10.80
2018-06-09T16:44:11.632Z,10.67
2018-06-09T16:46:39.904Z,10.43
2018-06-09T16:49:07.669Z,19.47
2018-06-09T16:51:35.551Z,14.77
2018-06-09T16:54:03.337Z,9.43
2018-06-09T16:56:31.852Z,10.03
2018-06-09T16:59:00.271Z,8.80
2018-06-09T17:01:28.113Z,13.17
2018-06-09T17:03:55.970Z,11.73
2018-06-09T17:06:23.791Z,11.60
2018-06-09T17:08:51.667Z,10.73
2018-06-09T17:11:19.564Z,8.43
2018-06-09T17:13:47.421Z,11.70
2018-06-09T17:16:15.504Z,11.17
2018-06-09T17:18:44.011Z,10.90
2018-06-09T17:21:11.893Z,7.07
2018-06-09T17:23:40.024Z,13.43
2018-06-09T17:26:07.916Z,23.53
2018-06-09T17:28:35.786Z,175.37
2018-06-09T17:31:03.635Z,21.00
2018-06-09T17:33:31.575Z,12.17
2018-06-09T17:35:59.467Z,16.10
2018-06-09T17:38:28.299Z,14.03
2018-06-09T17:40:56.270Z,9.37
2018-06-09T17:43:24.544Z,18.97
2018-06-09T17:45:53.134Z,10.63
2018-06-09T17:48:20.858Z,15.80
2018-06-09T17:50:48.726Z,14.57
2018-06-09T17:53:16.599Z,11.60
2018-06-09T17:55:44.795Z,11.87
2018-06-09T17:58:12.555Z,13.70
2018-06-09T18:00:40.290Z,13.60
2018-06-09T18:03:08.149Z,12.20
2018-06-09T18:05:36.126Z,13.87
2018-06-09T18:08:04.076Z,13.10
2018-06-09T18:10:31.987Z,14.50
2018-06-09T18:12:59.899Z,14.10
2018-06-09T18:15:27.749Z,19.27
2018-06-09T18:17:55.465Z,18.50
2018-06-09T18:20:23.339Z,13.10
2018-06-09T18:22:51.274Z,8.33
2018-06-09T18:25:20.106Z,9.57
2018-06-09T18:27:48.164Z,14.47
2018-06-09T18:30:16.092Z,14.37
2018-06-09T18:32:43.971Z,15.20
2018-06-09T18:35:12.530Z,16.07
2018-06-09T18:37:40.497Z,13.20
2018-06-09T18:40:08.505Z,14.10
2018-06-09T18:42:36.381Z,12.97
2018-06-09T18:45:04.346Z,8.90
2018-06-09T18:47:32.273Z,7.80
2018-06-09T18:50:00.038Z,16.43
2018-06-09T18:52:28.209Z,11.47
2018-06-09T18:54:55.942Z,14.13
2018-06-09T18:57:23.794Z,9.60
2018-06-09T18:59:51.716Z,10.93
2018-06-09T19:02:20.716Z,12.40
2018-06-09T19:04:49.642Z,20.43
2018-06-09T19:07:17.960Z,9.97
2018-06-09T19:09:45.855Z,11.23
2018-06-09T19:12:13.737Z,13.77
2018-06-09T19:14:41.764Z,11.33
2018-06-09T19:17:10.227Z,10.80
2018-06-09T19:19:38.173Z,16.70
2018-06-09T19:22:12.959Z,9.73
2018-06-09T19:24:40.803Z,9.27
2018-06-09T19:27:08.780Z,10.73
2018-06-09T19:29:36.834Z,12.47
2018-06-09T19:32:04.769Z,10.97
2018-06-09T19:34:32.875Z,19.80
2018-06-09T19:37:00.980Z,9.27
2018-06-09T19:39:28.870Z,15.10
2018-06-09T19:41:56.790Z,10.00
2018-06-09T19:44:24.640Z,11.90
2018-06-09T19:46:53.309Z,16.50
2018-06-09T19:49:21.206Z,14.43
2018-06-09T19:51:49.690Z,14.70
2018-06-09T19:54:17.762Z,14.73
2018-06-09T19:56:46.050Z,8.47
2018-06-09T19:59:13.970Z,11.87
2018-06-09T20:01:41.800Z,18.77
2018-06-09T20:04:09.565Z,11.53
2018-06-09T20:06:37.472Z,27.97
2018-06-09T20:09:07.345Z,12.63
2018-06-09T20:11:35.315Z,11.10
2018-06-09T20:14:03.676Z,13.57
2018-06-09T20:16:31.435Z,7.83
2018-06-09T20:18:59.611Z,13.70
2018-06-09T20:21:27.386Z,10.63
2018-06-09T20:23:55.307Z,13.37
2018-06-09T20:26:23.816Z,16.07
2018-06-09T20:28:52.853Z,11.80
2018-06-09T20:31:20.805Z,18.13
2018-06-09T20:33:48.742Z,17.10
2018-06-09T20:36:16.913Z,7.80
2018-06-09T20:38:45.999Z,13.87
2018-06-09T20:41:13.930Z,12.50
2018-06-09T20:43:42.848Z,11.70
2018-06-09T20:46:12.262Z,10.13
2018-06-09T20:48:40.769Z,14.30
2018-06-09T20:51:08.706Z,14.73
2018-06-09T20:53:36.824Z,14.30
2018-06-09T20:56:04.586Z,11.10
2018-06-09T20:58:40.083Z,10.40
2018-06-09T21:01:09.249Z,16.80
2018-06-09T21:03:37.860Z,20.90
2018-06-09T21:06:05.740Z,14.40
2018-06-09T21:08:33.629Z,25.90
2018-06-09T21:11:01.566Z,34.37
2018-06-09T21:13:29.475Z,43.90
2018-06-09T21:15:57.360Z,34.03
2018-06-09T21:18:25.492Z,28.67
2018-06-09T21:20:53.252Z,15.30
2018-06-09T21:23:21.145Z,13.90
2018-06-09T21:25:49.154Z,12.30
2018-06-09T21:28:22.747Z,15.43
2018-06-09T21:30:55.944Z,13.10
2018-06-09T21:33:41.529Z,14.03
2018-06-09T21:36:13.982Z,10.73
2018-06-09T21:38:47.960Z,13.77
2018-06-09T21:41:21.908Z,11.20
2018-06-09T21:43:53.959Z,16.90
2018-06-09T21:46:28.362Z,10.17
2018-06-09T21:48:56.518Z,9.20
2018-06-09T21:51:24.426Z,13.73
2018-06-09T21:53:52.309Z,9.77
2018-06-09T21:56:20.145Z,10.10
2018-06-09T21:58:47.883Z,12.03
2018-06-09T22:01:15.756Z,11.23
2018-06-09T22:03:43.703Z,17.53
2018-06-09T22:06:11.614Z,11.87
2018-06-09T22:08:39.756Z,16.30
2018-06-09T22:11:07.774Z,12.77
2018-06-09T22:13:35.677Z,13.03
2018-06-09T22:16:03.585Z,11.07
2018-06-09T22:18:31.422Z,10.13
2018-06-09T22:20:59.667Z,16.37
2018-06-09T22:23:27.553Z,11.17
2018-06-09T22:25:58.298Z,15.33
2018-06-09T22:28:26.684Z,8.97
2018-06-09T22:30:54.569Z,14.10
2018-06-09T22:33:22.721Z,9.40
2018-06-09T22:35:50.640Z,15.17
2018-06-09T22:38:18.368Z,14.73
2018-06-09T22:40:46.232Z,22.80
2018-06-09T22:43:14.088Z,15.53
2018-06-09T22:45:41.968Z,18.50
2018-06-09T22:48:09.845Z,12.50
2018-06-09T22:50:38.339Z,15.70
2018-06-09T22:53:06.381Z,12.70
2018-06-09T22:55:35.083Z,16.63
2018-06-09T22:58:03.009Z,19.17
2018-06-09T23:00:36.090Z,12.50
2018-06-09T23:03:03.985Z,12.80
2018-06-09T23:05:31.903Z,11.70
2018-06-09T23:07:59.819Z,13.10
2018-06-09T23:10:27.730Z,13.97
2018-06-09T23:12:55.483Z,10.60
2018-06-09T23:15:23.285Z,14.47
2018-06-09T23:17:51.157Z,12.80
2018-06-09T23:20:19.043Z,16.27
2018-06-09T23:22:46.930Z,15.53
2018-06-09T23:25:14.811Z,19.87
2018-06-09T23:27:42.682Z,15.20
2018-06-09T23:30:10.605Z,9.93
2018-06-09T23:32:38.467Z,13.63
2018-06-09T23:35:06.186Z,19.63
2018-06-09T23:37:34.056Z,19.23
2018-06-09T23:40:01.917Z,15.10
2018-06-09T23:42:29.809Z,12.77
2018-06-09T23:44:57.833Z,11.97
2018-06-09T23:47:26.067Z,20.57
2018-06-09T23:49:53.790Z,16.47
2018-06-09T23:52:21.815Z,18.60
2018-06-09T23:54:49.510Z,14.40
2018-06-09T23:57:17.375Z,10.63
2018-06-09T23:59:45.261Z,15.97
